sensor_id;sensor_type;location;lat;lon;timestamp;P1;durP1;ratioP1;P2;durP2;ratioP2
67816;SDS011;54614;47.576;7.524;2022-09-13T00:01:31;2.58;;;1.00;;
67816;SDS011;54614;47.576;7.524;2022-09-13T00:03:57;2.38;;;1.00;;
67816;SDS011;54614;47.576;7.524;2022-09-13T00:06:23;2.72;;;1.30;;
67816;SDS011;54614;47.576;7.524;2022-09-13T00:08:49;1.20;;;1.10;;
67816;SDS011;54614;47.576;7.524;2022-09-13T00:11:22;3.42;;;1.33;;
67816;SDS011;54614;47.576;7.524;2022-09-13T00:13:50;1.30;;;1.20;;
67816;SDS011;54614;47.576;7.524;2022-09-13T00:16:18;1.23;;;1.13;;
67816;SDS011;54614;47.576;7.524;2022-09-13T00:18:46;2.15;;;1.25;;
67816;SDS011;54614;47.576;7.524;2022-09-13T00:21:13;2.20;;;1.20;;
67816;SDS011;54614;47.576;7.524;2022-09-13T00:23:43;1.20;;;1.10;;
67816;SDS011;54614;47.576;7.524;2022-09-13T00:26:15;1.23;;;1.15;;
67816;SDS011;54614;47.576;7.524;2022-09-13T00:28:44;1.08;;;1.08;;
67816;SDS011;54614;47.576;7.524;2022-09-13T00:31:15;1.33;;;1.20;;
67816;SDS011;54614;47.576;7.524;2022-09-13T00:33:42;1.08;;;1.00;;
67816;SDS011;54614;47.576;7.524;2022-09-13T00:36:09;1.52;;;1.10;;
67816;SDS011;54614;47.576;7.524;2022-09-13T00:38:36;1.25;;;1.20;;
67816;SDS011;54614;47.576;7.524;2022-09-13T00:41:05;1.30;;;1.10;;
67816;SDS011;54614;47.576;7.524;2022-09-13T00:43:43;1.20;;;1.10;;
67816;SDS011;54614;47.576;7.524;2022-09-13T00:46:15;2.28;;;1.35;;
67816;SDS011;54614;47.576;7.524;2022-09-13T00:49:19;4.88;;;1.10;;
67816;SDS011;54614;47.576;7.524;2022-09-13T00:51:58;1.67;;;1.50;;
67816;SDS011;54614;47.576;7.524;2022-09-13T00:54:31;2.67;;;1.13;;
67816;SDS011;54614;47.576;7.524;2022-09-13T00:57:12;1.17;;;1.17;;
67816;SDS011;54614;47.576;7.524;2022-09-13T00:59:44;1.08;;;1.08;;
67816;SDS011;54614;47.576;7.524;2022-09-13T01:02:25;1.48;;;1.10;;
67816;SDS011;54614;47.576;7.524;2022-09-13T01:04:53;1.15;;;1.10;;
67816;SDS011;54614;47.576;7.524;2022-09-13T01:07:19;1.38;;;1.27;;
67816;SDS011;54614;47.576;7.524;2022-09-13T01:09:46;1.42;;;1.30;;
67816;SDS011;54614;47.576;7.524;2022-09-13T01:12:26;1.30;;;1.20;;
67816;SDS011;54614;47.576;7.524;2022-09-13T01:15:17;1.00;;;1.00;;
67816;SDS011;54614;47.576;7.524;2022-09-13T01:17:44;2.08;;;1.10;;
67816;SDS011;54614;47.576;7.524;2022-09-13T01:20:10;1.27;;;1.20;;
67816;SDS011;54614;47.576;7.524;2022-09-13T01:23:13;1.00;;;1.00;;
67816;SDS011;54614;47.576;7.524;2022-09-13T01:37:08;1.23;;;1.08;;
67816;SDS011;54614;47.576;7.524;2022-09-13T01:52:03;1.35;;;1.25;;
67816;SDS011;54614;47.576;7.524;2022-09-13T01:54:36;1.30;;;1.20;;
67816;SDS011;54614;47.576;7.524;2022-09-13T01:57:16;1.15;;;1.00;;
67816;SDS011;54614;47.576;7.524;2022-09-13T02:00:03;1.23;;;1.13;;
67816;SDS011;54614;47.576;7.524;2022-09-13T02:02:34;1.35;;;1.10;;
67816;SDS011;54614;47.576;7.524;2022-09-13T02:05:32;1.27;;;1.20;;
67816;SDS011;54614;47.576;7.524;2022-09-13T02:08:05;1.33;;;1.23;;
67816;SDS011;54614;47.576;7.524;2022-09-13T02:10:45;2.65;;;1.10;;
67816;SDS011;54614;47.576;7.524;2022-09-13T02:13:25;1.42;;;1.13;;
67816;SDS011;54614;47.576;7.524;2022-09-13T02:16:01;2.08;;;1.10;;
67816;SDS011;54614;47.576;7.524;2022-09-13T02:18:41;2.90;;;1.30;;
67816;SDS011;54614;47.576;7.524;2022-09-13T02:21:20;1.20;;;1.10;;
67816;SDS011;54614;47.576;7.524;2022-09-13T02:24:03;2.53;;;1.05;;
67816;SDS011;54614;47.576;7.524;2022-09-13T02:26:36;1.30;;;1.20;;
67816;SDS011;54614;47.576;7.524;2022-09-13T02:29:07;1.10;;;1.10;;
67816;SDS011;54614;47.576;7.524;2022-09-13T02:31:40;1.80;;;1.08;;
67816;SDS011;54614;47.576;7.524;2022-09-13T02:34:42;1.20;;;1.20;;
67816;SDS011;54614;47.576;7.524;2022-09-13T02:37:16;1.00;;;1.00;;
67816;SDS011;54614;47.576;7.524;2022-09-13T02:39:45;1.10;;;1.10;;
67816;SDS011;54614;47.576;7.524;2022-09-13T02:42:18;1.02;;;1.02;;
67816;SDS011;54614;47.576;7.524;2022-09-13T02:44:55;1.38;;;1.20;;
67816;SDS011;54614;47.576;7.524;2022-09-13T02:47:47;1.20;;;1.10;;
67816;SDS011;54614;47.576;7.524;2022-09-13T02:51:06;1.10;;;1.10;;
67816;SDS011;54614;47.576;7.524;2022-09-13T02:53:49;1.00;;;1.00;;
67816;SDS011;54614;47.576;7.524;2022-09-13T02:56:46;1.30;;;1.20;;
67816;SDS011;54614;47.576;7.524;2022-09-13T02:59:22;1.17;;;1.17;;
67816;SDS011;54614;47.576;7.524;2022-09-13T03:01:51;1.70;;;1.23;;
67816;SDS011;54614;47.576;7.524;2022-09-13T03:04:36;1.52;;;1.30;;
67816;SDS011;54614;47.576;7.524;2022-09-13T03:07:02;1.10;;;1.10;;
67816;SDS011;54614;47.576;7.524;2022-09-13T03:09:34;1.10;;;1.10;;
67816;SDS011;54614;47.576;7.524;2022-09-13T03:15:04;1.25;;;1.15;;
67816;SDS011;54614;47.576;7.524;2022-09-13T03:24:22;1.30;;;1.20;;
67816;SDS011;54614;47.576;7.524;2022-09-13T03:27:02;1.23;;;1.05;;
67816;SDS011;54614;47.576;7.524;2022-09-13T03:29:51;1.10;;;1.02;;
67816;SDS011;54614;47.576;7.524;2022-09-13T03:35:25;1.30;;;1.20;;
67816;SDS011;54614;47.576;7.524;2022-09-13T03:38:30;1.02;;;0.93;;
67816;SDS011;54614;47.576;7.524;2022-09-13T03:43:40;1.38;;;1.20;;
67816;SDS011;54614;47.576;7.524;2022-09-13T03:46:16;1.50;;;1.20;;
67816;SDS011;54614;47.576;7.524;2022-09-13T03:48:50;1.42;;;1.33;;
67816;SDS011;54614;47.576;7.524;2022-09-13T03:51:19;1.00;;;1.00;;
67816;SDS011;54614;47.576;7.524;2022-09-13T03:53:48;1.30;;;1.20;;
67816;SDS011;54614;47.576;7.524;2022-09-13T03:56:22;2.95;;;1.30;;
67816;SDS011;54614;47.576;7.524;2022-09-13T03:58:48;1.05;;;1.05;;
67816;SDS011;54614;47.576;7.524;2022-09-13T04:01:16;1.20;;;1.20;;
67816;SDS011;54614;47.576;7.524;2022-09-13T04:03:47;1.15;;;1.15;;
67816;SDS011;54614;47.576;7.524;2022-09-13T04:06:15;1.58;;;1.15;;
67816;SDS011;54614;47.576;7.524;2022-09-13T04:08:41;1.25;;;1.25;;
67816;SDS011;54614;47.576;7.524;2022-09-13T04:11:08;1.20;;;1.10;;
67816;SDS011;54614;47.576;7.524;2022-09-13T04:13:37;1.40;;;1.10;;
67816;SDS011;54614;47.576;7.524;2022-09-13T04:16:03;3.50;;;1.30;;
67816;SDS011;54614;47.576;7.524;2022-09-13T04:18:31;2.03;;;1.15;;
67816;SDS011;54614;47.576;7.524;2022-09-13T04:20:58;1.23;;;1.20;;
67816;SDS011;54614;47.576;7.524;2022-09-13T04:23:27;1.40;;;1.30;;
67816;SDS011;54614;47.576;7.524;2022-09-13T04:25:54;1.35;;;1.23;;
67816;SDS011;54614;47.576;7.524;2022-09-13T04:28:25;1.20;;;1.10;;
67816;SDS011;54614;47.576;7.524;2022-09-13T04:30:54;1.23;;;1.20;;
67816;SDS011;54614;47.576;7.524;2022-09-13T04:33:20;1.30;;;1.30;;
67816;SDS011;54614;47.576;7.524;2022-09-13T04:35:47;1.52;;;1.30;;
67816;SDS011;54614;47.576;7.524;2022-09-13T04:38:18;1.30;;;1.30;;
67816;SDS011;54614;47.576;7.524;2022-09-13T04:40:44;1.38;;;1.25;;
67816;SDS011;54614;47.576;7.524;2022-09-13T04:43:20;1.40;;;1.30;;
67816;SDS011;54614;47.576;7.524;2022-09-13T04:45:47;1.58;;;1.40;;
67816;SDS011;54614;47.576;7.524;2022-09-13T04:48:13;1.30;;;1.30;;
67816;SDS011;54614;47.576;7.524;2022-09-13T04:50:39;5.35;;;1.40;;
67816;SDS011;54614;47.576;7.524;2022-09-13T04:53:05;1.63;;;1.20;;
67816;SDS011;54614;47.576;7.524;2022-09-13T04:55:31;2.78;;;1.30;;
67816;SDS011;54614;47.576;7.524;2022-09-13T04:57:57;2.28;;;1.50;;
67816;SDS011;54614;47.576;7.524;2022-09-13T05:00:23;5.88;;;1.40;;
67816;SDS011;54614;47.576;7.524;2022-09-13T05:02:59;3.28;;;1.50;;
67816;SDS011;54614;47.576;7.524;2022-09-13T05:05:25;3.78;;;1.60;;
67816;SDS011;54614;47.576;7.524;2022-09-13T05:07:53;5.78;;;1.65;;
67816;SDS011;54614;47.576;7.524;2022-09-13T05:10:19;4.03;;;1.60;;
67816;SDS011;54614;47.576;7.524;2022-09-13T05:12:45;6.00;;;2.00;;
67816;SDS011;54614;47.576;7.524;2022-09-13T05:15:11;4.55;;;1.90;;
67816;SDS011;54614;47.576;7.524;2022-09-13T05:17:37;4.35;;;2.10;;
67816;SDS011;54614;47.576;7.524;2022-09-13T05:20:03;4.55;;;1.95;;
67816;SDS011;54614;47.576;7.524;2022-09-13T05:22:30;2.30;;;2.10;;
67816;SDS011;54614;47.576;7.524;2022-09-13T05:24:56;4.55;;;1.98;;
67816;SDS011;54614;47.576;7.524;2022-09-13T05:27:21;3.25;;;2.20;;
67816;SDS011;54614;47.576;7.524;2022-09-13T05:29:47;9.32;;;2.08;;
67816;SDS011;54614;47.576;7.524;2022-09-13T05:32:13;4.65;;;2.33;;
67816;SDS011;54614;47.576;7.524;2022-09-13T05:34:39;6.90;;;3.05;;
67816;SDS011;54614;47.576;7.524;2022-09-13T05:37:05;7.75;;;3.03;;
67816;SDS011;54614;47.576;7.524;2022-09-13T05:39:31;6.50;;;3.35;;
67816;SDS011;54614;47.576;7.524;2022-09-13T05:41:57;5.68;;;3.00;;
67816;SDS011;54614;47.576;7.524;2022-09-13T05:44:23;9.82;;;3.42;;
67816;SDS011;54614;47.576;7.524;2022-09-13T05:46:49;5.25;;;2.80;;
67816;SDS011;54614;47.576;7.524;2022-09-13T05:49:15;7.10;;;2.53;;
67816;SDS011;54614;47.576;7.524;2022-09-13T05:51:41;4.75;;;2.55;;
67816;SDS011;54614;47.576;7.524;2022-09-13T05:54:07;7.90;;;2.50;;
67816;SDS011;54614;47.576;7.524;2022-09-13T05:56:36;6.25;;;2.67;;
67816;SDS011;54614;47.576;7.524;2022-09-13T05:59:02;4.38;;;2.70;;
67816;SDS011;54614;47.576;7.524;2022-09-13T06:01:27;8.75;;;2.30;;
67816;SDS011;54614;47.576;7.524;2022-09-13T06:03:54;7.43;;;2.50;;
67816;SDS011;54614;47.576;7.524;2022-09-13T06:06:22;4.35;;;2.30;;
67816;SDS011;54614;47.576;7.524;2022-09-13T06:08:53;6.90;;;2.70;;
67816;SDS011;54614;47.576;7.524;2022-09-13T06:11:21;6.38;;;2.72;;
67816;SDS011;54614;47.576;7.524;2022-09-13T06:13:49;5.20;;;2.55;;
67816;SDS011;54614;47.576;7.524;2022-09-13T06:16:16;4.55;;;2.55;;
67816;SDS011;54614;47.576;7.524;2022-09-13T06:18:42;6.40;;;2.50;;
67816;SDS011;54614;47.576;7.524;2022-09-13T06:21:09;5.60;;;2.53;;
67816;SDS011;54614;47.576;7.524;2022-09-13T06:23:45;6.60;;;2.85;;
67816;SDS011;54614;47.576;7.524;2022-09-13T06:26:17;6.88;;;2.50;;
67816;SDS011;54614;47.576;7.524;2022-09-13T06:28:49;4.68;;;2.35;;
67816;SDS011;54614;47.576;7.524;2022-09-13T06:31:18;5.05;;;2.28;;
67816;SDS011;54614;47.576;7.524;2022-09-13T06:33:48;3.45;;;2.38;;
67816;SDS011;54614;47.576;7.524;2022-09-13T06:36:21;4.10;;;2.25;;
67816;SDS011;54614;47.576;7.524;2022-09-13T06:38:47;14.57;;;2.20;;
67816;SDS011;54614;47.576;7.524;2022-09-13T06:41:15;8.63;;;2.17;;
67816;SDS011;54614;47.576;7.524;2022-09-13T06:43:51;3.78;;;1.90;;
67816;SDS011;54614;47.576;7.524;2022-09-13T06:46:22;3.75;;;2.00;;
67816;SDS011;54614;47.576;7.524;2022-09-13T06:48:50;3.47;;;2.30;;
67816;SDS011;54614;47.576;7.524;2022-09-13T06:51:17;5.20;;;2.15;;
67816;SDS011;54614;47.576;7.524;2022-09-13T06:53:46;2.95;;;1.90;;
67816;SDS011;54614;47.576;7.524;2022-09-13T06:56:15;4.90;;;2.10;;
67816;SDS011;54614;47.576;7.524;2022-09-13T06:58:45;5.68;;;2.28;;
67816;SDS011;54614;47.576;7.524;2022-09-13T07:01:15;2.20;;;1.80;;
67816;SDS011;54614;47.576;7.524;2022-09-13T07:03:47;6.10;;;2.17;;
67816;SDS011;54614;47.576;7.524;2022-09-13T07:06:19;5.95;;;2.42;;
67816;SDS011;54614;47.576;7.524;2022-09-13T07:08:48;4.13;;;2.05;;
67816;SDS011;54614;47.576;7.524;2022-09-13T07:11:17;3.50;;;1.77;;
67816;SDS011;54614;47.576;7.524;2022-09-13T07:13:49;2.67;;;2.25;;
67816;SDS011;54614;47.576;7.524;2022-09-13T07:16:17;3.72;;;2.10;;
67816;SDS011;54614;47.576;7.524;2022-09-13T07:18:49;2.05;;;1.70;;
67816;SDS011;54614;47.576;7.524;2022-09-13T07:21:17;4.05;;;2.00;;
67816;SDS011;54614;47.576;7.524;2022-09-13T07:23:44;4.80;;;2.08;;
67816;SDS011;54614;47.576;7.524;2022-09-13T07:26:09;3.90;;;2.13;;
67816;SDS011;54614;47.576;7.524;2022-09-13T07:28:37;2.22;;;1.88;;
67816;SDS011;54614;47.576;7.524;2022-09-13T07:31:11;7.10;;;1.88;;
67816;SDS011;54614;47.576;7.524;2022-09-13T07:33:54;4.60;;;1.65;;
67816;SDS011;54614;47.576;7.524;2022-09-13T07:36:23;3.72;;;1.80;;
67816;SDS011;54614;47.576;7.524;2022-09-13T07:38:50;3.30;;;1.90;;
67816;SDS011;54614;47.576;7.524;2022-09-13T07:41:17;3.55;;;1.80;;
67816;SDS011;54614;47.576;7.524;2022-09-13T07:43:48;3.40;;;1.92;;
67816;SDS011;54614;47.576;7.524;2022-09-13T07:46:19;3.05;;;1.65;;
67816;SDS011;54614;47.576;7.524;2022-09-13T07:48:48;2.08;;;1.70;;
67816;SDS011;54614;47.576;7.524;2022-09-13T07:51:19;3.92;;;1.92;;
67816;SDS011;54614;47.576;7.524;2022-09-13T07:53:55;2.38;;;1.95;;
67816;SDS011;54614;47.576;7.524;2022-09-13T07:56:26;2.00;;;1.60;;
67816;SDS011;54614;47.576;7.524;2022-09-13T07:58:58;2.20;;;1.88;;
67816;SDS011;54614;47.576;7.524;2022-09-13T08:01:27;3.72;;;1.88;;
67816;SDS011;54614;47.576;7.524;2022-09-13T08:04:04;3.80;;;1.80;;
67816;SDS011;54614;47.576;7.524;2022-09-13T08:06:34;1.58;;;1.48;;
67816;SDS011;54614;47.576;7.524;2022-09-13T08:09:02;1.77;;;1.67;;
67816;SDS011;54614;47.576;7.524;2022-09-13T08:11:32;1.92;;;1.65;;
67816;SDS011;54614;47.576;7.524;2022-09-13T08:14:02;2.47;;;1.70;;
67816;SDS011;54614;47.576;7.524;2022-09-13T08:16:30;3.45;;;1.80;;
67816;SDS011;54614;47.576;7.524;2022-09-13T08:18:59;3.65;;;1.50;;
67816;SDS011;54614;47.576;7.524;2022-09-13T08:21:30;1.98;;;1.77;;
67816;SDS011;54614;47.576;7.524;2022-09-13T08:24:03;2.00;;;1.80;;
67816;SDS011;54614;47.576;7.524;2022-09-13T08:26:32;3.40;;;1.67;;
67816;SDS011;54614;47.576;7.524;2022-09-13T08:29:00;1.70;;;1.60;;
67816;SDS011;54614;47.576;7.524;2022-09-13T08:31:29;2.45;;;1.83;;
67816;SDS011;54614;47.576;7.524;2022-09-13T08:33:56;1.90;;;1.60;;
67816;SDS011;54614;47.576;7.524;2022-09-13T08:36:22;2.45;;;1.65;;
67816;SDS011;54614;47.576;7.524;2022-09-13T08:38:54;3.10;;;1.70;;
67816;SDS011;54614;47.576;7.524;2022-09-13T08:47:34;2.00;;;1.67;;
67816;SDS011;54614;47.576;7.524;2022-09-13T08:50:15;2.53;;;1.60;;
67816;SDS011;54614;47.576;7.524;2022-09-13T08:53:02;3.28;;;1.58;;
67816;SDS011;54614;47.576;7.524;2022-09-13T08:58:43;2.83;;;1.75;;
67816;SDS011;54614;47.576;7.524;2022-09-13T09:07:01;1.70;;;1.60;;
67816;SDS011;54614;47.576;7.524;2022-09-13T09:09:36;1.60;;;1.50;;
67816;SDS011;54614;47.576;7.524;2022-09-13T09:17:59;1.70;;;1.60;;
67816;SDS011;54614;47.576;7.524;2022-09-13T09:20:45;1.85;;;1.70;;
67816;SDS011;54614;47.576;7.524;2022-09-13T09:23:29;3.05;;;1.80;;
67816;SDS011;54614;47.576;7.524;2022-09-13T09:26:15;1.60;;;1.50;;
67816;SDS011;54614;47.576;7.524;2022-09-13T09:28:49;1.80;;;1.70;;
67816;SDS011;54614;47.576;7.524;2022-09-13T09:31:56;1.58;;;1.48;;
67816;SDS011;54614;47.576;7.524;2022-09-13T09:37:49;1.50;;;1.40;;
67816;SDS011;54614;47.576;7.524;2022-09-13T09:40:42;1.60;;;1.50;;
67816;SDS011;54614;47.576;7.524;2022-09-13T09:43:26;1.73;;;1.60;;
67816;SDS011;54614;47.576;7.524;2022-09-13T09:46:03;1.98;;;1.52;;
67816;SDS011;54614;47.576;7.524;2022-09-13T09:48:40;2.25;;;1.60;;
67816;SDS011;54614;47.576;7.524;2022-09-13T09:51:17;1.50;;;1.40;;
67816;SDS011;54614;47.576;7.524;2022-09-13T09:53:48;1.58;;;1.48;;
67816;SDS011;54614;47.576;7.524;2022-09-13T09:56:25;1.60;;;1.50;;
67816;SDS011;54614;47.576;7.524;2022-09-13T09:58:57;2.38;;;1.35;;
67816;SDS011;54614;47.576;7.524;2022-09-13T10:01:26;2.20;;;1.48;;
67816;SDS011;54614;47.576;7.524;2022-09-13T10:06:38;1.55;;;1.45;;
67816;SDS011;54614;47.576;7.524;2022-09-13T10:09:14;1.70;;;1.60;;
67816;SDS011;54614;47.576;7.524;2022-09-13T10:19:52;1.30;;;1.30;;
67816;SDS011;54614;47.576;7.524;2022-09-13T10:22:29;1.50;;;1.40;;
67816;SDS011;54614;47.576;7.524;2022-09-13T10:27:54;1.60;;;1.50;;
67816;SDS011;54614;47.576;7.524;2022-09-13T10:30:41;1.92;;;1.50;;
67816;SDS011;54614;47.576;7.524;2022-09-13T10:33:38;1.65;;;1.50;;
67816;SDS011;54614;47.576;7.524;2022-09-13T10:38:50;2.10;;;1.70;;
67816;SDS011;54614;47.576;7.524;2022-09-13T10:41:42;1.50;;;1.40;;
67816;SDS011;54614;47.576;7.524;2022-09-13T10:44:39;1.30;;;1.30;;
67816;SDS011;54614;47.576;7.524;2022-09-13T10:47:33;1.48;;;1.38;;
67816;SDS011;54614;47.576;7.524;2022-09-13T10:50:18;1.73;;;1.40;;
67816;SDS011;54614;47.576;7.524;2022-09-13T10:52:58;2.00;;;1.58;;
67816;SDS011;54614;47.576;7.524;2022-09-13T10:55:27;1.50;;;1.40;;
67816;SDS011;54614;47.576;7.524;2022-09-13T11:00:33;1.73;;;1.63;;
67816;SDS011;54614;47.576;7.524;2022-09-13T11:06:28;1.50;;;1.40;;
67816;SDS011;54614;47.576;7.524;2022-09-13T11:09:27;1.70;;;1.60;;
67816;SDS011;54614;47.576;7.524;2022-09-13T11:12:37;1.48;;;1.38;;
67816;SDS011;54614;47.576;7.524;2022-09-13T11:30:48;1.63;;;1.50;;
67816;SDS011;54614;47.576;7.524;2022-09-13T11:33:43;1.50;;;1.40;;
67816;SDS011;54614;47.576;7.524;2022-09-13T11:36:32;1.55;;;1.45;;
67816;SDS011;54614;47.576;7.524;2022-09-13T11:39:42;1.60;;;1.50;;
67816;SDS011;54614;47.576;7.524;2022-09-13T11:45:11;1.63;;;1.40;;
67816;SDS011;54614;47.576;7.524;2022-09-13T11:48:26;1.60;;;1.50;;
67816;SDS011;54614;47.576;7.524;2022-09-13T11:51:10;1.58;;;1.33;;
67816;SDS011;54614;47.576;7.524;2022-09-13T11:57:09;1.55;;;1.45;;
67816;SDS011;54614;47.576;7.524;2022-09-13T11:59:56;1.50;;;1.40;;
67816;SDS011;54614;47.576;7.524;2022-09-13T12:02:54;1.58;;;1.30;;
67816;SDS011;54614;47.576;7.524;2022-09-13T12:05:27;1.45;;;1.35;;
67816;SDS011;54614;47.576;7.524;2022-09-13T12:08:05;1.48;;;1.40;;
67816;SDS011;54614;47.576;7.524;2022-09-13T12:10:48;1.40;;;1.30;;
67816;SDS011;54614;47.576;7.524;2022-09-13T12:13:49;1.60;;;1.50;;
67816;SDS011;54614;47.576;7.524;2022-09-13T12:16:34;1.45;;;1.35;;
67816;SDS011;54614;47.576;7.524;2022-09-13T12:19:26;1.40;;;1.30;;
67816;SDS011;54614;47.576;7.524;2022-09-13T12:22:15;1.60;;;1.50;;
67816;SDS011;54614;47.576;7.524;2022-09-13T12:24:46;1.50;;;1.40;;
67816;SDS011;54614;47.576;7.524;2022-09-13T12:27:30;1.60;;;1.50;;
67816;SDS011;54614;47.576;7.524;2022-09-13T12:32:48;1.60;;;1.50;;
67816;SDS011;54614;47.576;7.524;2022-09-13T12:35:20;1.40;;;1.30;;
67816;SDS011;54614;47.576;7.524;2022-09-13T12:38:13;1.70;;;1.60;;
67816;SDS011;54614;47.576;7.524;2022-09-13T12:41:14;1.40;;;1.30;;
67816;SDS011;54614;47.576;7.524;2022-09-13T12:43:45;1.58;;;1.48;;
67816;SDS011;54614;47.576;7.524;2022-09-13T12:46:54;1.35;;;1.30;;
67816;SDS011;54614;47.576;7.524;2022-09-13T12:56:38;1.30;;;1.30;;
67816;SDS011;54614;47.576;7.524;2022-09-13T12:59:22;1.50;;;1.40;;
67816;SDS011;54614;47.576;7.524;2022-09-13T13:02:00;1.40;;;1.40;;
67816;SDS011;54614;47.576;7.524;2022-09-13T13:05:03;1.30;;;1.30;;
67816;SDS011;54614;47.576;7.524;2022-09-13T13:07:48;1.60;;;1.50;;
67816;SDS011;54614;47.576;7.524;2022-09-13T13:10:26;1.48;;;1.38;;
67816;SDS011;54614;47.576;7.524;2022-09-13T13:18:26;1.40;;;1.30;;
67816;SDS011;54614;47.576;7.524;2022-09-13T13:26:43;1.40;;;1.30;;
67816;SDS011;54614;47.576;7.524;2022-09-13T13:34:44;1.20;;;1.20;;
67816;SDS011;54614;47.576;7.524;2022-09-13T13:42:24;1.65;;;1.30;;
67816;SDS011;54614;47.576;7.524;2022-09-13T13:49:43;1.40;;;1.30;;
67816;SDS011;54614;47.576;7.524;2022-09-13T13:52:37;1.20;;;1.20;;
67816;SDS011;54614;47.576;7.524;2022-09-13T13:55:27;1.30;;;1.30;;
67816;SDS011;54614;47.576;7.524;2022-09-13T13:58:21;1.10;;;1.10;;
67816;SDS011;54614;47.576;7.524;2022-09-13T14:01:13;1.30;;;1.20;;
67816;SDS011;54614;47.576;7.524;2022-09-13T14:06:56;1.20;;;1.20;;
67816;SDS011;54614;47.576;7.524;2022-09-13T14:15:14;1.33;;;1.30;;
67816;SDS011;54614;47.576;7.524;2022-09-13T14:18:10;1.40;;;1.30;;
67816;SDS011;54614;47.576;7.524;2022-09-13T14:26:56;1.20;;;1.20;;
67816;SDS011;54614;47.576;7.524;2022-09-13T14:29:25;4.05;;;1.40;;
67816;SDS011;54614;47.576;7.524;2022-09-13T14:31:52;2.58;;;1.20;;
67816;SDS011;54614;47.576;7.524;2022-09-13T14:34:31;4.78;;;1.20;;
67816;SDS011;54614;47.576;7.524;2022-09-13T14:37:03;1.50;;;1.40;;
67816;SDS011;54614;47.576;7.524;2022-09-13T14:39:52;2.67;;;1.30;;
67816;SDS011;54614;47.576;7.524;2022-09-13T14:42:24;1.20;;;1.20;;
67816;SDS011;54614;47.576;7.524;2022-09-13T14:44:51;3.72;;;1.40;;
67816;SDS011;54614;47.576;7.524;2022-09-13T14:49:59;1.35;;;1.20;;
67816;SDS011;54614;47.576;7.524;2022-09-13T14:53:01;1.95;;;1.42;;
67816;SDS011;54614;47.576;7.524;2022-09-13T14:55:37;1.23;;;1.20;;
67816;SDS011;54614;47.576;7.524;2022-09-13T14:58:16;1.10;;;1.10;;
67816;SDS011;54614;47.576;7.524;2022-09-13T15:00:59;1.70;;;1.30;;
67816;SDS011;54614;47.576;7.524;2022-09-13T15:03:33;1.40;;;1.30;;
67816;SDS011;54614;47.576;7.524;2022-09-13T15:06:00;1.23;;;1.13;;
67816;SDS011;54614;47.576;7.524;2022-09-13T15:10:59;1.10;;;1.10;;
67816;SDS011;54614;47.576;7.524;2022-09-13T15:13:27;1.10;;;1.10;;
67816;SDS011;54614;47.576;7.524;2022-09-13T15:15:53;1.05;;;1.05;;
67816;SDS011;54614;47.576;7.524;2022-09-13T15:28:47;1.50;;;1.40;;
67816;SDS011;54614;47.576;7.524;2022-09-13T15:31:27;1.40;;;1.30;;
67816;SDS011;54614;47.576;7.524;2022-09-13T15:37:00;1.00;;;1.00;;
67816;SDS011;54614;47.576;7.524;2022-09-13T15:40:01;1.27;;;1.20;;
67816;SDS011;54614;47.576;7.524;2022-09-13T15:42:37;2.05;;;1.40;;
67816;SDS011;54614;47.576;7.524;2022-09-13T15:45:03;1.25;;;1.23;;
67816;SDS011;54614;47.576;7.524;2022-09-13T15:47:29;2.47;;;1.35;;
67816;SDS011;54614;47.576;7.524;2022-09-13T15:49:55;10.02;;;1.50;;
67816;SDS011;54614;47.576;7.524;2022-09-13T15:52:22;5.25;;;1.42;;
67816;SDS011;54614;47.576;7.524;2022-09-13T15:54:49;3.05;;;1.27;;
67816;SDS011;54614;47.576;7.524;2022-09-13T15:57:16;2.05;;;1.38;;
67816;SDS011;54614;47.576;7.524;2022-09-13T15:59:52;10.30;;;1.80;;
67816;SDS011;54614;47.576;7.524;2022-09-13T16:02:24;2.75;;;1.40;;
67816;SDS011;54614;47.576;7.524;2022-09-13T16:04:53;11.77;;;1.65;;
67816;SDS011;54614;47.576;7.524;2022-09-13T16:07:20;11.52;;;2.10;;
67816;SDS011;54614;47.576;7.524;2022-09-13T16:09:47;13.77;;;1.90;;
67816;SDS011;54614;47.576;7.524;2022-09-13T16:12:14;9.40;;;1.70;;
67816;SDS011;54614;47.576;7.524;2022-09-13T16:14:42;3.70;;;1.40;;
67816;SDS011;54614;47.576;7.524;2022-09-13T16:17:19;6.38;;;2.08;;
67816;SDS011;54614;47.576;7.524;2022-09-13T16:19:48;5.80;;;1.50;;
67816;SDS011;54614;47.576;7.524;2022-09-13T16:22:14;6.72;;;1.55;;
67816;SDS011;54614;47.576;7.524;2022-09-13T16:24:41;8.25;;;1.52;;
67816;SDS011;54614;47.576;7.524;2022-09-13T16:27:08;8.73;;;1.60;;
67816;SDS011;54614;47.576;7.524;2022-09-13T16:29:37;8.20;;;1.50;;
67816;SDS011;54614;47.576;7.524;2022-09-13T16:32:04;1.50;;;1.30;;
67816;SDS011;54614;47.576;7.524;2022-09-13T16:34:29;4.35;;;1.30;;
67816;SDS011;54614;47.576;7.524;2022-09-13T16:36:55;6.47;;;1.48;;
67816;SDS011;54614;47.576;7.524;2022-09-13T16:39:21;3.90;;;1.27;;
67816;SDS011;54614;47.576;7.524;2022-09-13T16:41:48;5.20;;;1.42;;
67816;SDS011;54614;47.576;7.524;2022-09-13T16:44:14;3.97;;;1.45;;
67816;SDS011;54614;47.576;7.524;2022-09-13T16:46:41;3.25;;;1.40;;
67816;SDS011;54614;47.576;7.524;2022-09-13T16:49:07;6.47;;;1.58;;
67816;SDS011;54614;47.576;7.524;2022-09-13T16:51:34;6.38;;;1.65;;
67816;SDS011;54614;47.576;7.524;2022-09-13T16:54:02;6.13;;;1.48;;
67816;SDS011;54614;47.576;7.524;2022-09-13T16:56:29;5.80;;;1.60;;
67816;SDS011;54614;47.576;7.524;2022-09-13T16:58:55;4.13;;;1.50;;
67816;SDS011;54614;47.576;7.524;2022-09-13T17:01:22;6.20;;;1.65;;
67816;SDS011;54614;47.576;7.524;2022-09-13T17:03:52;5.07;;;1.40;;
67816;SDS011;54614;47.576;7.524;2022-09-13T17:06:19;3.90;;;1.40;;
67816;SDS011;54614;47.576;7.524;2022-09-13T17:08:48;4.00;;;1.63;;
67816;SDS011;54614;47.576;7.524;2022-09-13T17:11:18;5.65;;;1.70;;
67816;SDS011;54614;47.576;7.524;2022-09-13T17:13:46;7.45;;;1.73;;
67816;SDS011;54614;47.576;7.524;2022-09-13T17:16:23;4.72;;;1.50;;
67816;SDS011;54614;47.576;7.524;2022-09-13T17:19:04;8.68;;;1.50;;
67816;SDS011;54614;47.576;7.524;2022-09-13T17:21:35;6.07;;;1.70;;
67816;SDS011;54614;47.576;7.524;2022-09-13T17:24:01;5.55;;;1.48;;
67816;SDS011;54614;47.576;7.524;2022-09-13T17:26:28;7.43;;;1.42;;
67816;SDS011;54614;47.576;7.524;2022-09-13T17:28:54;3.08;;;1.58;;
67816;SDS011;54614;47.576;7.524;2022-09-13T17:31:20;4.15;;;1.60;;
67816;SDS011;54614;47.576;7.524;2022-09-13T17:33:45;4.32;;;1.50;;
67816;SDS011;54614;47.576;7.524;2022-09-13T17:36:12;5.30;;;1.50;;
67816;SDS011;54614;47.576;7.524;2022-09-13T17:38:39;5.03;;;1.60;;
67816;SDS011;54614;47.576;7.524;2022-09-13T17:41:07;7.50;;;1.65;;
67816;SDS011;54614;47.576;7.524;2022-09-13T17:43:44;3.10;;;1.50;;
67816;SDS011;54614;47.576;7.524;2022-09-13T17:46:11;5.75;;;1.40;;
67816;SDS011;54614;47.576;7.524;2022-09-13T17:48:40;4.85;;;1.77;;
67816;SDS011;54614;47.576;7.524;2022-09-13T17:51:12;6.13;;;1.45;;
67816;SDS011;54614;47.576;7.524;2022-09-13T17:53:42;4.50;;;1.50;;
67816;SDS011;54614;47.576;7.524;2022-09-13T17:56:15;3.40;;;1.52;;
67816;SDS011;54614;47.576;7.524;2022-09-13T17:59:04;16.15;;;2.53;;
67816;SDS011;54614;47.576;7.524;2022-09-13T18:01:35;16.58;;;2.10;;
67816;SDS011;54614;47.576;7.524;2022-09-13T18:04:04;18.63;;;2.53;;
67816;SDS011;54614;47.576;7.524;2022-09-13T18:06:31;13.50;;;1.75;;
67816;SDS011;54614;47.576;7.524;2022-09-13T18:08:58;11.45;;;2.30;;
67816;SDS011;54614;47.576;7.524;2022-09-13T18:11:24;8.18;;;1.90;;
67816;SDS011;54614;47.576;7.524;2022-09-13T18:13:49;17.08;;;2.65;;
67816;SDS011;54614;47.576;7.524;2022-09-13T18:16:18;17.60;;;1.83;;
67816;SDS011;54614;47.576;7.524;2022-09-13T18:18:52;14.70;;;1.92;;
67816;SDS011;54614;47.576;7.524;2022-09-13T18:21:19;18.45;;;2.28;;
67816;SDS011;54614;47.576;7.524;2022-09-13T18:23:47;18.70;;;2.75;;
67816;SDS011;54614;47.576;7.524;2022-09-13T18:26:17;14.05;;;2.05;;